Time;durP1;ratioP1;P1;durP2;ratioP2;P2;SDS_P1;SDS_P2;PMS_P1;PMS_P2;Temp;Humidity;BMP_temperature;BMP_pressure;BME280_temperature;BME280_humidity;BME280_pressure;Samples;Min_cycle;Max_cycle;Signal;HPM_P1;HPM_P2
2022/07/30 00:01:33;;;;;;;8.52;3.30;;;18.00;99.90;;;;;;5105611;28;20105;-62
2022/07/30 00:04:01;;;;;;;6.90;3.03;;;18.00;99.90;;;;;;5111983;28;20104;-63
2022/07/30 00:06:29;;;;;;;5.68;2.60;;;18.00;99.90;;;;;;5114733;28;20065;-62
2022/07/30 00:08:56;;;;;;;4.30;3.15;;;17.90;99.90;;;;;;5103679;28;20497;-62
2022/07/30 00:11:23;;;;;;;18.60;3.15;;;17.90;99.90;;;;;;5103052;28;20044;-62
2022/07/30 00:13:54;;;;;;;7.38;3.15;;;17.80;99.90;;;;;;5103260;28;20407;-63
2022/07/30 00:16:21;;;;;;;8.25;3.55;;;17.80;99.90;;;;;;5092702;28;20061;-62
2022/07/30 00:18:47;;;;;;;5.82;3.20;;;17.70;99.90;;;;;;5112879;28;20093;-62
2022/07/30 00:21:14;;;;;;;4.80;3.40;;;17.70;99.90;;;;;;5113425;28;20055;-62
2022/07/30 00:24:01;;;;;;;7.60;3.40;;;17.70;99.90;;;;;;5113044;28;20052;-62
2022/07/30 00:26:28;;;;;;;4.93;2.65;;;17.70;99.90;;;;;;5113131;28;20044;-62
2022/07/30 00:28:55;;;;;;;4.57;2.85;;;17.60;99.90;;;;;;5103426;28;20060;-62
2022/07/30 00:31:22;;;;;;;5.72;3.20;;;17.70;99.90;;;;;;5113753;28;20482;-62
2022/07/30 00:33:49;;;;;;;6.75;2.92;;;17.70;99.90;;;;;;5112527;28;20054;-62
2022/07/30 00:36:16;;;;;;;13.00;3.97;;;17.70;99.90;;;;;;5113258;28;20043;-62
2022/07/30 00:38:43;;;;;;;6.00;3.17;;;17.70;99.90;;;;;;5113704;28;20051;-65
2022/07/30 00:41:10;;;;;;;6.60;3.10;;;17.70;99.90;;;;;;5109940;28;20048;-62
2022/07/30 00:43:38;;;;;;;4.10;3.08;;;17.70;99.90;;;;;;5103369;28;20047;-63
2022/07/30 00:46:05;;;;;;;5.03;3.33;;;17.80;99.90;;;;;;5113110;28;20059;-62
2022/07/30 00:48:32;;;;;;;5.38;3.17;;;17.80;99.90;;;;;;5113674;28;20047;-62
2022/07/30 00:50:58;;;;;;;6.38;3.30;;;17.80;99.90;;;;;;5111838;28;20048;-62
2022/07/30 00:53:25;;;;;;;6.07;3.00;;;17.80;99.90;;;;;;5110375;28;20403;-62
2022/07/30 00:55:52;;;;;;;6.47;3.42;;;17.80;99.90;;;;;;5112918;28;20510;-62
2022/07/30 00:58:19;;;;;;;7.93;3.30;;;17.80;99.90;;;;;;5109729;28;20066;-62
2022/07/30 01:00:46;;;;;;;7.63;3.20;;;17.80;99.90;;;;;;5111346;28;20367;-62
2022/07/30 01:03:13;;;;;;;4.88;3.33;;;17.80;99.90;;;;;;5113254;28;20060;-62
2022/07/30 01:05:40;;;;;;;6.40;3.00;;;17.80;99.90;;;;;;5112630;28;20039;-62
2022/07/30 01:08:07;;;;;;;6.50;2.67;;;17.80;99.90;;;;;;5112514;28;20058;-62
2022/07/30 01:10:34;;;;;;;8.93;3.13;;;17.80;99.90;;;;;;5109495;28;20059;-62
2022/07/30 01:13:01;;;;;;;5.40;2.95;;;17.80;99.90;;;;;;5098753;28;20055;-67
2022/07/30 01:15:28;;;;;;;6.63;3.22;;;17.80;99.90;;;;;;5105185;28;20047;-62
2022/07/30 01:17:57;;;;;;;6.57;2.63;;;17.80;99.90;;;;;;5111731;28;20056;-62
2022/07/30 01:20:27;;;;;;;3.55;2.40;;;17.80;99.90;;;;;;5113455;28;20055;-62
2022/07/30 01:23:12;;;;;;;3.70;2.42;;;17.80;99.90;;;;;;5111630;28;20044;-62
2022/07/30 01:25:55;;;;;;;4.18;2.50;;;17.80;99.90;;;;;;5111811;28;20382;-63
2022/07/30 01:28:27;;;;;;;4.13;2.25;;;17.70;99.90;;;;;;5108158;28;20054;-62
2022/07/30 01:30:55;;;;;;;8.85;2.95;;;17.70;99.90;;;;;;5093931;28;20048;-62
2022/07/30 01:33:22;;;;;;;2.72;2.00;;;17.60;99.90;;;;;;5089943;28;20047;-62
2022/07/30 01:35:49;;;;;;;4.97;2.70;;;17.60;99.90;;;;;;5094473;28;20047;-62
2022/07/30 01:38:20;;;;;;;3.47;2.22;;;17.60;99.90;;;;;;5105460;28;20044;-62
2022/07/30 01:40:48;;;;;;;5.00;2.70;;;17.60;99.90;;;;;;5100968;28;20051;-62
2022/07/30 01:43:15;;;;;;;4.65;2.90;;;17.60;99.90;;;;;;5111175;28;20043;-63
2022/07/30 01:45:42;;;;;;;3.20;2.40;;;17.70;99.90;;;;;;5105376;28;20039;-62
2022/07/30 01:48:10;;;;;;;6.40;2.33;;;17.70;99.90;;;;;;5091880;28;20079;-63
2022/07/30 01:50:37;;;;;;;6.55;2.55;;;17.70;99.90;;;;;;5107078;28;20078;-63
2022/07/30 01:53:04;;;;;;;7.22;2.40;;;17.60;99.90;;;;;;5109958;28;20051;-62
2022/07/30 01:55:40;;;;;;;7.35;2.20;;;17.60;99.90;;;;;;5089916;28;20109;-62
2022/07/30 01:58:08;;;;;;;4.25;2.08;;;17.70;99.90;;;;;;5086431;28;20170;-65
2022/07/30 02:00:36;;;;;;;4.72;2.58;;;17.70;99.90;;;;;;5109841;28;20108;-62
2022/07/30 02:03:04;;;;;;;5.80;2.10;;;17.70;99.90;;;;;;5097685;28;20048;-62
2022/07/30 02:05:31;;;;;;;4.53;2.00;;;17.80;99.90;;;;;;5104331;28;20036;-62
2022/07/30 02:08:02;;;;;;;3.22;2.03;;;17.70;99.90;;;;;;5111057;28;20035;-62
2022/07/30 02:10:34;;;;;;;4.45;2.10;;;17.70;99.90;;;;;;5108363;28;20059;-64
2022/07/30 02:13:02;;;;;;;3.85;1.95;;;17.70;99.90;;;;;;5107299;28;20414;-64
2022/07/30 02:15:33;;;;;;;5.97;2.58;;;17.70;99.90;;;;;;5107148;28;20054;-65
2022/07/30 02:18:19;;;;;;;3.53;2.20;;;17.70;99.90;;;;;;5097301;28;20117;-64
2022/07/30 02:21:01;;;;;;;5.18;3.10;;;17.70;99.90;;;;;;5110798;28;20074;-64
2022/07/30 02:23:42;;;;;;;5.85;2.60;;;17.60;99.90;;;;;;5110720;28;20449;-65
2022/07/30 02:26:09;;;;;;;6.18;2.70;;;17.60;99.90;;;;;;5109662;28;20054;-65
2022/07/30 02:28:37;;;;;;;5.18;2.50;;;17.60;99.90;;;;;;5101408;28;20052;-61
2022/07/30 02:31:05;;;;;;;3.75;2.22;;;17.60;99.90;;;;;;5082045;28;20048;-70
2022/07/30 02:33:43;;;;;;;5.25;2.22;;;17.60;99.90;;;;;;5093455;28;20406;-64
2022/07/30 02:36:14;;;;;;;5.18;2.70;;;17.60;99.90;;;;;;5094667;28;20101;-62
2022/07/30 02:38:41;;;;;;;5.10;2.72;;;17.60;99.90;;;;;;5108274;28;20376;-65
2022/07/30 02:41:08;;;;;;;4.65;2.83;;;17.60;99.90;;;;;;5088904;28;20491;-68
2022/07/30 02:43:36;;;;;;;3.03;2.17;;;17.50;99.90;;;;;;5114581;28;20105;-64
2022/07/30 02:46:03;;;;;;;5.13;2.13;;;17.50;99.90;;;;;;5113123;28;20039;-65
2022/07/30 02:48:30;;;;;;;5.22;2.65;;;17.50;99.90;;;;;;5104067;28;20402;-66
2022/07/30 02:51:00;;;;;;;7.82;2.70;;;17.40;99.90;;;;;;5109475;28;20388;-64
2022/07/30 02:53:27;;;;;;;5.85;2.40;;;17.40;99.90;;;;;;5114824;28;20050;-64
2022/07/30 02:55:54;;;;;;;5.10;2.65;;;17.30;99.90;;;;;;5115377;28;20044;-63
2022/07/30 02:58:22;;;;;;;4.03;3.13;;;17.30;99.90;;;;;;5111478;28;20047;-64
2022/07/30 03:00:51;;;;;;;3.95;2.47;;;17.20;99.90;;;;;;5113979;28;20055;-64
2022/07/30 03:03:18;;;;;;;7.18;2.45;;;17.20;99.90;;;;;;5113429;28;20147;-64
2022/07/30 03:05:44;;;;;;;5.07;2.58;;;17.10;99.90;;;;;;5113961;28;20048;-63
2022/07/30 03:08:11;;;;;;;5.53;2.80;;;17.00;99.90;;;;;;5097409;28;20055;-64
2022/07/30 03:10:44;;;;;;;9.98;2.90;;;17.00;99.90;;;;;;5109678;28;20410;-64
2022/07/30 03:13:11;;;;;;;5.50;2.55;;;17.00;99.90;;;;;;5112564;28;20116;-64
2022/07/30 03:15:43;;;;;;;6.38;3.17;;;16.90;99.90;;;;;;5105382;28;20426;-64
2022/07/30 03:18:11;;;;;;;6.15;2.78;;;16.90;99.90;;;;;;5113812;28;20054;-64
2022/07/30 03:20:38;;;;;;;4.38;2.53;;;16.80;99.90;;;;;;5114987;28;20044;-63
2022/07/30 03:23:05;;;;;;;3.03;2.50;;;16.80;99.90;;;;;;5080420;28;20067;-64
2022/07/30 03:25:32;;;;;;;6.82;3.10;;;16.70;99.90;;;;;;5108408;28;20039;-63
2022/07/30 03:28:00;;;;;;;4.45;3.10;;;16.70;99.90;;;;;;5112772;28;20042;-64
2022/07/30 03:30:27;;;;;;;7.55;3.05;;;16.70;99.90;;;;;;5112993;28;20039;-65
2022/07/30 03:32:54;;;;;;;5.88;2.70;;;16.70;99.90;;;;;;5104803;28;20051;-63
2022/07/30 03:35:23;;;;;;;5.55;2.70;;;16.60;99.90;;;;;;5090492;28;20058;-64
2022/07/30 03:37:52;;;;;;;6.50;3.20;;;16.70;99.90;;;;;;5111327;28;20043;-63
2022/07/30 03:40:19;;;;;;;6.93;2.90;;;16.60;99.90;;;;;;5114653;28;20044;-63
2022/07/30 03:42:46;;;;;;;7.80;4.13;;;16.60;99.90;;;;;;5113367;28;20482;-63
2022/07/30 03:45:13;;;;;;;5.82;3.00;;;16.60;99.90;;;;;;5112830;28;20055;-64
2022/07/30 03:47:41;;;;;;;7.00;3.65;;;16.50;99.90;;;;;;5113371;28;20059;-64
2022/07/30 03:50:08;;;;;;;6.70;3.05;;;16.50;99.90;;;;;;5111985;28;20043;-70
2022/07/30 03:52:37;;;;;;;6.40;3.42;;;16.40;99.90;;;;;;5111581;28;20052;-64
2022/07/30 03:55:08;;;;;;;5.18;3.53;;;16.40;99.90;;;;;;5109378;28;20055;-64
2022/07/30 03:57:35;;;;;;;8.10;3.90;;;16.30;99.90;;;;;;5114608;28;20051;-64
2022/07/30 04:00:07;;;;;;;5.03;3.25;;;16.20;99.90;;;;;;5114478;28;20130;-64
2022/07/30 04:02:41;;;;;;;4.38;2.67;;;16.20;99.90;;;;;;5111186;28;20039;-64
2022/07/30 04:05:08;;;;;;;4.75;2.88;;;16.10;99.90;;;;;;5108337;28;20501;-64
2022/07/30 04:07:35;;;;;;;5.65;2.88;;;16.10;99.90;;;;;;5096321;28;20058;-63
2022/07/30 04:10:11;;;;;;;5.22;3.53;;;16.10;99.90;;;;;;5113295;28;20043;-63
2022/07/30 04:12:38;;;;;;;5.32;2.95;;;16.00;99.90;;;;;;5107756;28;20440;-64
2022/07/30 04:15:05;;;;;;;9.20;3.70;;;16.00;99.90;;;;;;5110274;28;20050;-63
2022/07/30 04:17:54;;;;;;;6.70;3.35;;;15.90;99.90;;;;;;5112399;28;20486;-65
2022/07/30 04:20:24;;;;;;;6.72;3.33;;;15.90;99.90;;;;;;5111913;28;20059;-64
2022/07/30 04:22:50;;;;;;;4.78;3.45;;;15.90;99.90;;;;;;5110733;28;20040;-64
2022/07/30 04:25:18;;;;;;;7.18;4.32;;;15.80;99.90;;;;;;5110030;28;20048;-63
2022/07/30 04:27:51;;;;;;;6.88;3.75;;;15.80;99.90;;;;;;5100178;28;20036;-64
2022/07/30 04:30:29;;;;;;;5.20;3.75;;;15.70;99.90;;;;;;5114090;28;20093;-63
2022/07/30 04:32:56;;;;;;;6.78;3.50;;;15.80;99.90;;;;;;5093874;28;20063;-64
2022/07/30 04:35:30;;;;;;;7.05;3.95;;;15.70;99.90;;;;;;5111707;28;20047;-63
2022/07/30 04:38:17;;;;;;;7.72;3.88;;;15.70;99.90;;;;;;5098387;28;20043;-63
2022/07/30 04:40:44;;;;;;;6.90;4.35;;;15.70;99.90;;;;;;5114563;28;20050;-63
2022/07/30 04:43:11;;;;;;;8.07;4.65;;;15.70;99.90;;;;;;5107171;28;20054;-63
2022/07/30 04:45:39;;;;;;;10.02;5.30;;;15.70;99.90;;;;;;5112727;28;20048;-64
2022/07/30 04:48:06;;;;;;;8.88;5.50;;;15.70;99.90;;;;;;5113476;28;20578;-63
2022/07/30 04:50:34;;;;;;;7.47;4.90;;;15.70;99.90;;;;;;5111494;28;20051;-63
2022/07/30 04:53:01;;;;;;;8.13;5.25;;;15.70;99.90;;;;;;5110823;28;20055;-63
2022/07/30 04:55:27;;;;;;;8.52;5.10;;;15.70;99.90;;;;;;5087448;28;20052;-65
2022/07/30 04:57:54;;;;;;;7.78;4.72;;;15.80;99.90;;;;;;5110866;28;20044;-64
2022/07/30 05:00:21;;;;;;;8.88;4.68;;;15.80;99.90;;;;;;5106386;28;20489;-64
2022/07/30 05:02:48;;;;;;;5.53;4.70;;;15.90;99.90;;;;;;5099345;28;20491;-69
2022/07/30 05:05:16;;;;;;;13.55;10.18;;;16.00;99.90;;;;;;5090314;28;20055;-64
2022/07/30 05:07:43;;;;;;;340.98;304.92;;;16.10;99.90;;;;;;5110019;28;20035;-69
2022/07/30 05:10:10;;;;;;;47.92;42.05;;;16.20;99.90;;;;;;5093344;28;20044;-63
2022/07/30 05:12:37;;;;;;;20.77;17.70;;;16.20;99.90;;;;;;5104571;28;20043;-63
2022/07/30 05:15:06;;;;;;;14.10;11.23;;;16.30;99.90;;;;;;5097499;28;20052;-64
2022/07/30 05:17:33;;;;;;;9.48;8.40;;;16.30;99.90;;;;;;5093417;28;20490;-63
2022/07/30 05:20:00;;;;;;;11.32;9.13;;;16.30;99.90;;;;;;5093335;28;20052;-63
2022/07/30 05:22:29;;;;;;;11.13;7.95;;;16.40;99.90;;;;;;5093474;28;20416;-66
2022/07/30 05:24:56;;;;;;;49.15;41.83;;;16.40;99.90;;;;;;5106343;28;20048;-64
2022/07/30 05:27:23;;;;;;;191.00;170.15;;;16.40;99.90;;;;;;5112003;28;20051;-62
2022/07/30 05:29:50;;;;;;;46.83;39.30;;;16.50;99.90;;;;;;5110327;28;20044;-67
2022/07/30 05:32:19;;;;;;;30.83;25.00;;;16.40;99.90;;;;;;5110339;28;20047;-63
2022/07/30 05:34:50;;;;;;;20.48;17.90;;;16.50;99.90;;;;;;5110653;28;20048;-63
2022/07/30 05:37:17;;;;;;;15.93;13.90;;;16.50;99.90;;;;;;5095127;28;20394;-63
2022/07/30 05:39:44;;;;;;;13.45;11.88;;;16.60;99.90;;;;;;5110804;28;20043;-64
2022/07/30 05:42:28;;;;;;;14.30;11.50;;;16.70;99.90;;;;;;5110191;28;20137;-63
2022/07/30 05:44:55;;;;;;;14.05;11.30;;;16.80;99.90;;;;;;5092399;28;20244;-64
2022/07/30 05:47:22;;;;;;;14.45;11.48;;;16.90;99.90;;;;;;5095477;28;20040;-63
2022/07/30 05:49:49;;;;;;;18.83;12.27;;;17.20;99.90;;;;;;5107582;28;20050;-63
2022/07/30 05:52:16;;;;;;;15.95;11.35;;;17.60;99.90;;;;;;5110750;28;20054;-63
2022/07/30 05:54:43;;;;;;;13.73;12.02;;;17.90;99.90;;;;;;5111797;28;20051;-63
2022/07/30 05:57:10;;;;;;;14.20;11.60;;;18.20;99.90;;;;;;5112996;28;20062;-65
2022/07/30 05:59:37;;;;;;;13.93;11.93;;;18.40;99.90;;;;;;5110274;28;20047;-61
2022/07/30 06:02:05;;;;;;;13.13;11.10;;;18.60;99.90;;;;;;5112953;28;20055;-62
2022/07/30 06:04:34;;;;;;;14.88;12.40;;;18.90;99.90;;;;;;5092848;28;20047;-61
2022/07/30 06:07:01;;;;;;;17.15;12.73;;;19.20;99.90;;;;;;5111595;28;20044;-62
2022/07/30 06:09:29;;;;;;;15.70;12.23;;;19.40;99.90;;;;;;5111533;28;20044;-61
2022/07/30 06:12:03;;;;;;;15.63;12.60;;;19.50;99.90;;;;;;5110148;28;20070;-61
2022/07/30 06:14:31;;;;;;;15.27;11.68;;;19.60;99.90;;;;;;5100743;28;20043;-62
2022/07/30 06:16:58;;;;;;;14.73;11.65;;;19.70;99.90;;;;;;5109156;28;20086;-62
2022/07/30 06:19:25;;;;;;;16.63;11.73;;;19.80;99.90;;;;;;5111431;28;20054;-61
2022/07/30 06:21:52;;;;;;;14.40;11.45;;;19.90;99.90;;;;;;5111252;28;20048;-61
2022/07/30 06:24:32;;;;;;;14.63;10.60;;;19.90;99.90;;;;;;5110322;28;20485;-62
2022/07/30 06:26:59;;;;;;;13.40;9.32;;;20.00;99.90;;;;;;5093772;28;20056;-61
2022/07/30 06:29:27;;;;;;;12.18;9.20;;;20.10;99.90;;;;;;5111356;28;20425;-63
2022/07/30 06:31:54;;;;;;;8.68;7.03;;;20.10;99.90;;;;;;5108016;28;20043;-61
2022/07/30 06:34:21;;;;;;;12.48;7.15;;;20.10;99.90;;;;;;5112134;28;20055;-61
2022/07/30 06:36:48;;;;;;;9.75;6.68;;;20.20;99.90;;;;;;5094081;28;20180;-62
2022/07/30 06:39:15;;;;;;;7.90;6.00;;;20.20;99.90;;;;;;5111284;28;20055;-61
2022/07/30 06:42:02;;;;;;;6.80;5.40;;;20.30;99.90;;;;;;5102282;28;20083;-62
2022/07/30 06:44:29;;;;;;;7.25;5.35;;;20.40;99.90;;;;;;5110879;28;20047;-61
2022/07/30 06:46:55;;;;;;;7.32;4.93;;;20.40;99.90;;;;;;5108693;28;20080;-61
2022/07/30 06:49:22;;;;;;;7.13;4.97;;;20.50;99.90;;;;;;5104359;28;20043;-61
2022/07/30 06:51:50;;;;;;;7.85;4.30;;;20.60;99.90;;;;;;5111144;28;20483;-62
2022/07/30 06:54:17;;;;;;;6.05;4.43;;;20.70;99.90;;;;;;5111545;28;20055;-61
2022/07/30 06:56:43;;;;;;;6.93;3.72;;;20.80;99.90;;;;;;5093944;28;20486;-61
2022/07/30 06:59:10;;;;;;;7.70;4.07;;;20.80;99.90;;;;;;5112116;28;20048;-61
2022/07/30 07:01:37;;;;;;;8.23;4.35;;;20.90;99.90;;;;;;5109744;28;20044;-61
2022/07/30 07:04:04;;;;;;;4.70;2.80;;;21.00;99.90;;;;;;5107566;28;20517;-62
2022/07/30 07:06:31;;;;;;;6.25;3.67;;;21.10;99.90;;;;;;5112001;28;20120;-62
2022/07/30 07:08:58;;;;;;;6.47;3.20;;;21.10;99.90;;;;;;5112260;28;20456;-61
2022/07/30 07:11:25;;;;;;;4.97;3.03;;;21.20;99.90;;;;;;5108988;28;20047;-62
2022/07/30 07:13:52;;;;;;;9.93;4.07;;;21.20;99.90;;;;;;5103027;28;20044;-61
2022/07/30 07:16:24;;;;;;;4.93;2.75;;;21.30;99.90;;;;;;5110306;28;20520;-61
2022/07/30 07:18:52;;;;;;;5.68;3.38;;;21.30;99.90;;;;;;5108644;28;20054;-62
2022/07/30 07:21:19;;;;;;;5.70;3.10;;;21.50;99.90;;;;;;5090175;28;20475;-62
2022/07/30 07:23:47;;;;;;;7.03;3.33;;;21.50;99.90;;;;;;5111477;28;20074;-68
2022/07/30 07:26:14;;;;;;;9.55;8.00;;;21.60;99.90;;;;;;5112510;28;20138;-61
2022/07/30 07:28:41;;;;;;;6.68;4.07;;;21.70;99.90;;;;;;5113474;28;20044;-61
2022/07/30 07:31:09;;;;;;;6.18;3.25;;;21.80;99.90;;;;;;5114485;28;20079;-62
2022/07/30 07:33:36;;;;;;;10.45;3.30;;;21.80;99.90;;;;;;5113942;28;20048;-61
2022/07/30 07:36:03;;;;;;;7.25;2.75;;;21.80;99.90;;;;;;5109748;28;20061;-62
2022/07/30 07:38:30;;;;;;;7.93;3.05;;;21.90;99.90;;;;;;5111347;28;20043;-62
2022/07/30 07:40:57;;;;;;;5.38;2.75;;;21.80;99.90;;;;;;5100504;28;20051;-61
2022/07/30 07:43:24;;;;;;;6.05;2.97;;;21.80;99.90;;;;;;5114835;28;20051;-62
2022/07/30 07:45:51;;;;;;;4.45;2.58;;;21.90;99.90;;;;;;5112762;28;20051;-61
2022/07/30 07:48:18;;;;;;;5.93;2.60;;;22.00;99.90;;;;;;5115008;28;20044;-61
2022/07/30 07:50:45;;;;;;;6.57;2.70;;;22.10;99.90;;;;;;5113062;28;20479;-62
2022/07/30 07:53:12;;;;;;;6.57;2.83;;;22.20;99.90;;;;;;5114052;28;20057;-61
2022/07/30 07:55:39;;;;;;;4.25;2.33;;;22.40;99.90;;;;;;5113714;28;20047;-62
2022/07/30 07:58:06;;;;;;;6.22;2.60;;;22.50;99.90;;;;;;5113518;28;20100;-68
2022/07/30 08:00:33;;;;;;;4.28;2.10;;;22.70;99.90;;;;;;5111763;28;20483;-62
2022/07/30 08:03:00;;;;;;;5.47;2.50;;;22.70;99.90;;;;;;5111527;28;20052;-61
2022/07/30 08:05:27;;;;;;;4.72;2.38;;;22.80;99.90;;;;;;5108549;28;20048;-62
2022/07/30 08:08:14;;;;;;;4.82;2.28;;;22.80;99.90;;;;;;5107245;28;20407;-63
2022/07/30 08:10:41;;;;;;;3.47;2.13;;;22.90;99.90;;;;;;5109396;27;20047;-64
2022/07/30 08:13:08;;;;;;;4.18;2.45;;;23.10;99.90;;;;;;5081052;28;20055;-61
2022/07/30 08:15:55;;;;;;;21.80;17.17;;;23.20;99.90;;;;;;5094592;28;20056;-64
2022/07/30 08:18:22;;;;;;;5.95;3.80;;;23.20;99.60;;;;;;5098650;28;20051;-64
2022/07/30 08:20:50;;;;;;;5.32;2.58;;;23.30;99.60;;;;;;5110000;28;20044;-66
2022/07/30 08:23:18;;;;;;;4.10;2.10;;;23.30;99.30;;;;;;5109140;28;20062;-64
2022/07/30 08:25:45;;;;;;;6.20;4.80;;;23.40;98.50;;;;;;5095736;28;20044;-65
2022/07/30 08:28:12;;;;;;;5.70;3.97;;;23.50;98.20;;;;;;5113385;28;20051;-68
2022/07/30 08:30:59;;;;;;;5.50;2.15;;;23.50;98.00;;;;;;5113816;28;20035;-67
2022/07/30 08:33:28;;;;;;;;;;;23.60;97.90;;;;;;5113673;28;20056;-67
2022/07/30 08:35:55;;;;;;;5.35;2.00;;;23.60;96.10;;;;;;5098725;28;19923;-66
2022/07/30 08:38:30;;;;;;;9.13;2.20;;;23.60;96.90;;;;;;5099352;28;20039;-67
2022/07/30 08:40:57;;;;;;;5.03;3.10;;;23.50;97.20;;;;;;5093102;28;20499;-70
2022/07/30 08:43:25;;;;;;;8.75;2.38;;;23.70;97.50;;;;;;5112868;28;20482;-64
2022/07/30 08:45:53;;;;;;;6.28;2.63;;;23.80;97.30;;;;;;5112625;28;20401;-65
2022/07/30 08:48:20;;;;;;;5.72;2.38;;;23.90;96.80;;;;;;5096351;28;20044;-65
2022/07/30 08:50:47;;;;;;;8.38;2.00;;;23.90;97.40;;;;;;5109545;28;20517;-64
2022/07/30 08:53:14;;;;;;;8.50;2.65;;;24.10;96.70;;;;;;5112223;28;20057;-64
2022/07/30 08:55:41;;;;;;;5.25;2.20;;;24.20;97.40;;;;;;5112132;28;20766;-63
2022/07/30 08:58:25;;;;;;;4.25;2.05;;;24.30;96.20;;;;;;5111683;28;20414;-63
2022/07/30 09:00:52;;;;;;;6.15;2.20;;;24.30;95.30;;;;;;5091096;28;20042;-63
2022/07/30 09:03:19;;;;;;;5.88;2.53;;;24.30;96.40;;;;;;5110902;28;20047;-63
2022/07/30 09:05:46;;;;;;;5.50;2.63;;;24.30;96.40;;;;;;5112306;28;20522;-63
2022/07/30 09:08:12;;;;;;;17.65;12.88;;;24.40;96.40;;;;;;5112515;28;20063;-61
2022/07/30 09:10:45;;;;;;;5.85;3.85;;;24.40;96.30;;;;;;5107268;28;20043;-62
2022/07/30 09:13:22;;;;;;;9.38;6.65;;;24.50;95.70;;;;;;5099427;28;20566;-64
2022/07/30 09:15:50;;;;;;;6.95;5.07;;;24.50;95.90;;;;;;5113411;28;20044;-63
2022/07/30 09:18:36;;;;;;;8.70;4.22;;;24.60;96.00;;;;;;5097461;28;20117;-63
2022/07/30 09:21:33;;;;;;;7.05;2.70;;;24.60;95.80;;;;;;5108471;28;20043;-64
2022/07/30 09:24:04;;;;;;;30.10;26.98;;;24.60;95.80;;;;;;5095746;28;20044;-62
2022/07/30 09:26:34;;;;;;;14.00;6.40;;;24.60;96.40;;;;;;5108471;28;20067;-65
2022/07/30 09:29:24;;;;;;;9.30;5.15;;;24.70;96.30;;;;;;5109743;28;20051;-68
2022/07/30 09:31:58;;;;;;;5.82;3.53;;;24.80;96.30;;;;;;5092696;28;20051;-64
2022/07/30 09:34:35;;;;;;;5.88;2.78;;;25.00;96.30;;;;;;5111414;28;20643;-64
2022/07/30 09:37:08;;;;;;;4.43;2.15;;;25.00;96.00;;;;;;5075597;28;20122;-64
2022/07/30 09:39:39;;;;;;;5.93;2.50;;;25.20;95.70;;;;;;5098776;28;20067;-64
2022/07/30 09:42:26;;;;;;;4.07;2.10;;;25.20;95.50;;;;;;5113053;28;20562;-65
2022/07/30 09:45:13;;;;;;;6.78;2.10;;;25.20;95.20;;;;;;5108739;28;20505;-64
2022/07/30 09:47:43;;;;;;;6.82;2.90;;;25.20;94.60;;;;;;5109836;28;20052;-64
2022/07/30 09:50:15;;;;;;;4.78;2.85;;;25.20;95.10;;;;;;5108891;28;20043;-65
2022/07/30 09:53:07;;;;;;;5.05;1.98;;;25.20;95.10;;;;;;5096797;28;20047;-65
2022/07/30 09:55:35;;;;;;;;;;;25.40;95.20;;;;;;5105630;28;20079;-68
2022/07/30 09:58:07;;;;;;;4.72;2.00;;;25.40;94.90;;;;;;5085732;28;19924;-70
2022/07/30 10:00:35;;;;;;;4.85;2.30;;;25.40;94.20;;;;;;5107961;28;20043;-67
2022/07/30 10:03:14;;;;;;;11.38;3.13;;;25.30;94.20;;;;;;5067270;28;20170;-65
2022/07/30 10:05:59;;;;;;;3.80;2.40;;;25.40;95.00;;;;;;5086772;28;20048;-67
2022/07/30 10:08:49;;;;;;;4.03;2.20;;;25.50;94.40;;;;;;5101769;28;20506;-70
2022/07/30 10:11:18;;;;;;;2.85;2.17;;;25.50;94.00;;;;;;5105727;28;20043;-67
2022/07/30 10:13:52;;;;;;;13.30;10.20;;;25.50;93.40;;;;;;5108082;28;20116;-65
2022/07/30 10:16:19;;;;;;;19.42;16.92;;;25.50;93.40;;;;;;5098888;28;20390;-64
2022/07/30 10:18:49;;;;;;;8.38;6.70;;;25.50;93.00;;;;;;5104538;28;20051;-63
2022/07/30 10:21:17;;;;;;;5.47;2.58;;;25.50;92.80;;;;;;5074099;28;20052;-64
2022/07/30 10:23:44;;;;;;;6.65;4.70;;;25.50;92.80;;;;;;5098906;28;20036;-62
2022/07/30 10:26:16;;;;;;;6.43;2.92;;;25.60;93.10;;;;;;5102118;28;20130;-62
2022/07/30 10:28:44;;;;;;;5.72;2.58;;;25.70;92.70;;;;;;5098574;28;20048;-64
2022/07/30 10:31:10;;;;;;;6.30;2.35;;;25.80;92.30;;;;;;5105749;28;20085;-66
2022/07/30 10:33:57;;;;;;;10.27;2.70;;;25.90;92.50;;;;;;5109553;28;20039;-64
2022/07/30 10:36:24;;;;;;;4.18;2.05;;;26.00;92.40;;;;;;5087581;28;20487;-67
2022/07/30 10:38:51;;;;;;;4.43;2.17;;;26.10;91.90;;;;;;5109522;28;20047;-65
2022/07/30 10:41:40;;;;;;;4.03;1.63;;;26.00;91.00;;;;;;5105516;28;20067;-64
2022/07/30 10:44:28;;;;;;;4.15;2.10;;;26.00;90.40;;;;;;5100473;28;20242;-64
2022/07/30 10:47:03;;;;;;;3.78;1.60;;;26.10;90.40;;;;;;5102671;28;20562;-65
2022/07/30 10:49:33;;;;;;;3.83;2.10;;;26.10;90.50;;;;;;5104792;28;20040;-64
2022/07/30 10:52:09;;;;;;;4.68;2.58;;;26.20;90.60;;;;;;5098344;28;20036;-64
2022/07/30 10:54:40;;;;;;;3.47;1.67;;;26.30;90.10;;;;;;5100767;28;20112;-63
2022/07/30 10:57:15;;;;;;;5.28;1.85;;;26.40;90.10;;;;;;5100571;28;21418;-64
2022/07/30 11:00:01;;;;;;;5.43;1.70;;;26.40;88.90;;;;;;5091743;28;20067;-64
2022/07/30 11:02:33;;;;;;;2.53;1.50;;;26.50;88.80;;;;;;5107281;28;20466;-65
2022/07/30 11:05:16;;;;;;;29.60;24.10;;;26.50;88.30;;;;;;5084885;28;20401;-62
2022/07/30 11:07:44;;;;;;;4.93;2.78;;;26.60;86.90;;;;;;5102487;28;20555;-70
2022/07/30 11:10:39;;;;;;;5.90;2.10;;;26.60;86.10;;;;;;5096395;28;20491;-67
2022/07/30 11:13:06;;;;;;;6.93;2.45;;;26.70;85.60;;;;;;5105270;28;20040;-66
2022/07/30 11:15:58;;;;;;;5.15;2.40;;;26.80;86.90;;;;;;5103767;28;20055;-66
2022/07/30 11:18:26;;;;;;;5.45;2.00;;;27.00;85.10;;;;;;5100679;28;20048;-67
2022/07/30 11:21:13;;;;;;;9.32;5.80;;;27.20;85.30;;;;;;5092555;28;20046;-65
2022/07/30 11:23:41;;;;;;;4.80;3.35;;;27.40;83.90;;;;;;5108441;28;20044;-65
2022/07/30 11:26:08;;;;;;;2.72;2.17;;;27.40;84.80;;;;;;5099525;28;20051;-65
2022/07/30 11:28:42;;;;;;;3.47;1.75;;;27.40;84.20;;;;;;5103978;28;20040;-63
2022/07/30 11:31:27;;;;;;;9.52;6.80;;;27.50;83.80;;;;;;5105247;28;20123;-67
2022/07/30 11:34:17;;;;;;;13.73;8.77;;;27.70;83.90;;;;;;5097030;28;20040;-64
2022/07/30 11:37:20;;;;;;;7.68;5.40;;;27.80;83.10;;;;;;5110404;28;20079;-65
2022/07/30 11:40:00;;;;;;;5.10;2.53;;;27.60;79.80;;;;;;5014032;28;20452;-61
2022/07/30 11:42:45;;;;;;;4.53;2.25;;;27.40;82.10;;;;;;5095640;28;20047;-63
2022/07/30 11:45:15;;;;;;;5.07;1.98;;;27.40;81.60;;;;;;5111186;28;20051;-64
2022/07/30 11:47:46;;;;;;;3.95;2.13;;;27.50;82.00;;;;;;5104933;28;20042;-64
2022/07/30 11:50:39;;;;;;;7.22;1.92;;;27.50;81.80;;;;;;5081698;28;20047;-64
2022/07/30 11:53:08;;;;;;;6.25;2.10;;;27.50;80.90;;;;;;5101571;27;20222;-65
2022/07/30 11:55:37;;;;;;;;;;;27.50;81.80;;;;;;5099024;28;20047;-73
2022/07/30 11:58:06;;;;;;;25.30;22.42;;;27.40;81.60;;;;;;5106800;28;20268;-71
2022/07/30 12:00:36;;;;;;;;;;;27.60;80.70;;;;;;5100792;28;20124;-70
2022/07/30 12:03:10;;;;;;;6.93;4.53;;;27.70;79.20;;;;;;5098737;28;20287;-68
2022/07/30 12:05:38;;;;;;;3.97;2.47;;;27.70;79.90;;;;;;5107869;28;20044;-68
2022/07/30 12:08:05;;;;;;;5.22;2.35;;;27.70;79.40;;;;;;5107717;28;20044;-72
2022/07/30 12:10:34;;;;;;;6.78;1.80;;;27.70;79.40;;;;;;5094571;28;20134;-62
2022/07/30 12:13:10;;;;;;;4.88;2.03;;;27.70;79.20;;;;;;5107990;28;20043;-68
2022/07/30 12:15:42;;;;;;;2.50;1.80;;;27.80;78.20;;;;;;5107565;28;20056;-71
2022/07/30 12:18:12;;;;;;;3.83;1.65;;;27.60;78.30;;;;;;5107154;28;20061;-64
2022/07/30 12:21:10;;;;;;;3.70;1.65;;;27.50;78.30;;;;;;5087314;28;20043;-65
2022/07/30 12:23:37;;;;;;;4.90;2.10;;;27.50;79.00;;;;;;5106812;28;20040;-64
2022/07/30 12:26:04;;;;;;;3.25;1.63;;;27.40;78.10;;;;;;5103439;28;20048;-68
2022/07/30 12:28:32;;;;;;;6.78;2.60;;;27.30;77.90;;;;;;5105752;28;20048;-64
2022/07/30 12:31:02;;;;;;;5.33;1.70;;;27.30;78.20;;;;;;5083273;28;20562;-66
2022/07/30 12:33:29;;;;;;;5.63;1.83;;;27.20;77.90;;;;;;5098723;28;20047;-65
2022/07/30 12:35:57;;;;;;;4.38;1.92;;;27.20;78.70;;;;;;5081129;28;20178;-66
2022/07/30 12:38:25;;;;;;;4.60;2.03;;;27.20;78.60;;;;;;5080717;28;20059;-63
2022/07/30 12:41:02;;;;;;;4.50;2.05;;;27.40;77.50;;;;;;5104135;27;20050;-70
2022/07/30 12:43:49;;;;;;;43.20;38.88;;;27.50;78.40;;;;;;5079006;28;20048;-64
2022/07/30 12:46:19;;;;;;;6.50;4.05;;;27.60;76.30;;;;;;5111541;27;20043;-63
2022/07/30 12:48:57;;;;;;;3.75;2.70;;;27.70;76.50;;;;;;5108851;28;20104;-66
2022/07/30 12:51:31;;;;;;;2.90;1.73;;;27.90;75.60;;;;;;5101099;28;20479;-62
2022/07/30 12:54:14;;;;;;;3.67;1.80;;;28.10;76.30;;;;;;5093703;28;20123;-65
2022/07/30 12:57:05;;;;;;;2.83;2.08;;;28.10;74.80;;;;;;5093342;28;20059;-65
2022/07/30 12:59:34;;;;;;;18.73;11.45;;;28.10;74.50;;;;;;5105534;28;20121;-65
2022/07/30 13:02:02;;;;;;;8.48;5.90;;;28.20;75.20;;;;;;5103329;28;20478;-65
2022/07/30 13:04:30;;;;;;;26.80;21.60;;;28.40;75.00;;;;;;5108600;28;20463;-64